createdAt,value
2018-10-09T04:57:08.328Z,3
2018-10-09T05:03:38.739Z,7
2018-10-09T05:06:08.893Z,10
2018-10-09T05:08:09.035Z,13
2018-10-09T05:09:09.058Z,17
2018-10-09T05:10:09.100Z,20
2018-10-09T05:11:09.195Z,23
2018-10-09T05:12:09.236Z,27
2018-10-09T05:12:39.255Z,30
2018-10-09T05:13:09.554Z,33
2018-10-09T05:14:09.391Z,37
2018-10-09T05:14:39.408Z,40
2018-10-09T05:15:09.444Z,43
2018-10-09T05:15:39.481Z,47
2018-10-09T05:16:10.830Z,50
2018-10-09T05:16:39.545Z,57
2018-10-09T05:17:09.614Z,60
2018-10-09T05:17:39.648Z,63
2018-10-09T05:18:09.683Z,70
2018-10-09T05:18:39.684Z,77
2018-10-09T05:19:09.695Z,83
2018-10-09T05:19:39.694Z,93
2018-10-09T05:20:09.761Z,103
2018-10-09T05:20:39.811Z,117
2018-10-09T05:21:09.818Z,127
2018-10-09T05:21:39.843Z,133
2018-10-09T05:22:09.878Z,140
2018-10-09T05:22:39.925Z,147
2018-10-09T05:23:10.068Z,150
2018-10-09T05:23:39.974Z,157
2018-10-09T05:24:10.053Z,163
2018-10-09T05:24:40.070Z,170
2018-10-09T05:25:10.094Z,180
2018-10-09T05:25:40.099Z,190
2018-10-09T05:26:10.173Z,200
2018-10-09T05:26:40.154Z,210
2018-10-09T05:27:10.206Z,213
2018-10-09T05:27:40.246Z,223
2018-10-09T05:28:10.261Z,233
2018-10-09T05:28:40.296Z,243
2018-10-09T05:29:10.323Z,257
2018-10-09T05:29:40.308Z,267
2018-10-09T05:30:10.412Z,280
2018-10-09T05:30:40.369Z,290
2018-10-09T05:31:10.599Z,303
2018-10-09T05:31:40.479Z,313
2018-10-09T05:32:10.493Z,327
2018-10-09T05:32:40.517Z,340
2018-10-09T05:33:10.596Z,353
2018-10-09T05:33:40.557Z,370
2018-10-09T05:34:10.596Z,383
2018-10-09T05:34:40.647Z,400
2018-10-09T05:35:10.639Z,420
2018-10-09T05:35:40.701Z,433
2018-10-09T05:36:10.766Z,450
2018-10-09T05:36:40.735Z,470
2018-10-09T05:37:10.768Z,493
2018-10-09T05:37:40.862Z,513
2018-10-09T05:38:10.822Z,540
2018-10-09T05:38:40.890Z,567
2018-10-09T05:39:11.800Z,593
2018-10-09T05:39:40.916Z,623
2018-10-09T05:40:10.993Z,653
2018-10-09T05:40:40.988Z,687
2018-10-09T05:41:11.046Z,723
2018-10-09T05:41:41.095Z,760
2018-10-09T05:42:11.113Z,800
2018-10-09T05:42:41.138Z,840
2018-10-09T05:43:11.195Z,877
2018-10-09T05:43:41.209Z,917
2018-10-09T05:44:11.278Z,957
2018-10-09T05:44:41.307Z,997
2018-10-09T05:45:11.306Z,1033
2018-10-09T05:45:41.313Z,1067
2018-10-09T05:46:11.393Z,1107
2018-10-09T05:46:41.423Z,1143
2018-10-09T05:47:11.380Z,1180
2018-10-09T05:47:41.445Z,1220
2018-10-09T05:48:11.583Z,1257
2018-10-09T05:48:41.484Z,1293
2018-10-09T05:49:11.638Z,1333
2018-10-09T05:49:41.534Z,1373
2018-10-09T05:50:11.595Z,1410
2018-10-09T05:50:41.610Z,1453
2018-10-09T05:51:11.688Z,1493
2018-10-09T05:51:41.716Z,1530
2018-10-09T05:52:11.692Z,1570
2018-10-09T05:52:41.785Z,1613
2018-10-09T05:53:11.784Z,1653
2018-10-09T05:53:41.785Z,1693
2018-10-09T05:54:11.806Z,1727
2018-10-09T05:54:41.839Z,1767
2018-10-09T05:55:11.873Z,1807
2018-10-09T05:55:41.904Z,1847
2018-10-09T05:56:11.936Z,1883
2018-10-09T05:56:42.021Z,1920
2018-10-09T05:57:11.991Z,1957
2018-10-09T05:57:42.049Z,1997
2018-10-09T05:58:12.112Z,2033
2018-10-09T05:58:42.087Z,2073
2018-10-09T05:59:12.115Z,2110
2018-10-09T05:59:42.144Z,2143
2018-10-09T06:00:12.184Z,2177
2018-10-09T06:00:42.236Z,2217
2018-10-09T06:01:12.237Z,2253
2018-10-09T06:01:42.349Z,2293
2018-10-09T06:02:12.334Z,2333
2018-10-09T06:02:42.356Z,2370
2018-10-09T06:03:12.407Z,2413
2018-10-09T06:03:42.425Z,2460
2018-10-09T06:04:12.454Z,2507
2018-10-09T06:04:42.486Z,2557
2018-10-09T06:05:12.515Z,2600
2018-10-09T06:05:42.560Z,2653
2018-10-09T06:06:12.620Z,2700
2018-10-09T06:06:42.661Z,2750
2018-10-09T06:07:12.641Z,2790
2018-10-09T06:07:42.705Z,2840
2018-10-09T06:08:12.695Z,2887
2018-10-09T06:08:42.774Z,2933
2018-10-09T06:09:12.772Z,2980
2018-10-09T06:09:42.794Z,3020
2018-10-09T06:10:12.790Z,3063
2018-10-09T06:10:42.848Z,3110
2018-10-09T06:11:12.885Z,3153
2018-10-09T06:11:42.971Z,3190
2018-10-09T06:12:12.950Z,3223
2018-10-09T06:12:42.944Z,3260
2018-10-09T06:13:13.037Z,3293
2018-10-09T06:13:43.051Z,3330
2018-10-09T06:14:13.076Z,3363
2018-10-09T06:14:43.117Z,3400
2018-10-09T06:15:13.148Z,3433
2018-10-09T06:15:43.189Z,3470
2018-10-09T06:16:13.210Z,3503
2018-10-09T06:16:43.293Z,3537
2018-10-09T06:17:13.279Z,3567
2018-10-09T06:17:43.301Z,3600
2018-10-09T06:18:13.336Z,3627
2018-10-09T06:18:43.356Z,3653
2018-10-09T06:19:13.427Z,3680
2018-10-09T06:19:43.416Z,3703
2018-10-09T06:20:13.465Z,3727
2018-10-09T06:20:43.479Z,3753
2018-10-09T06:21:13.536Z,3777
2018-10-09T06:21:43.609Z,3803
2018-10-09T06:22:13.626Z,3820
2018-10-09T06:22:43.580Z,3840
2018-10-09T06:23:13.652Z,3857
2018-10-09T06:23:43.677Z,3873
2018-10-09T06:24:13.661Z,3893
2018-10-09T06:24:43.731Z,3910
2018-10-09T06:25:13.740Z,3927
2018-10-09T06:25:43.748Z,3947
2018-10-09T06:26:13.788Z,3967
2018-10-09T06:26:43.860Z,3987
2018-10-09T06:27:13.835Z,4010
2018-10-09T06:27:43.868Z,4037
2018-10-09T06:28:13.996Z,4060
2018-10-09T06:28:43.940Z,4090
2018-10-09T06:29:13.961Z,4123
2018-10-09T06:29:43.991Z,4157
2018-10-09T06:30:14.030Z,4193
2018-10-09T06:30:44.051Z,4230
2018-10-09T06:31:14.130Z,4273
2018-10-09T06:31:44.262Z,4323
2018-10-09T06:32:14.197Z,4373
2018-10-09T06:32:44.212Z,4423
2018-10-09T06:33:14.205Z,4470
2018-10-09T06:33:44.241Z,4507
2018-10-09T06:34:14.342Z,4550
2018-10-09T06:34:44.337Z,4597
2018-10-09T06:35:14.349Z,4650
2018-10-09T06:35:44.380Z,4700
2018-10-09T06:36:14.450Z,4757
2018-10-09T06:36:44.491Z,4813
2018-10-09T06:37:14.509Z,4873
2018-10-09T06:37:44.531Z,4927
2018-10-09T06:38:14.514Z,4983
2018-10-09T06:38:44.587Z,5043
2018-10-09T06:39:14.574Z,5103
2018-10-09T06:39:44.689Z,5160
2018-10-09T06:40:14.634Z,5223
2018-10-09T06:40:44.828Z,5293
2018-10-09T06:41:14.695Z,5360
2018-10-09T06:41:44.857Z,5430
2018-10-09T06:42:14.771Z,5507
2018-10-09T06:42:44.815Z,5573
2018-10-09T06:43:14.855Z,5657
2018-10-09T06:43:44.847Z,5747
2018-10-09T06:44:14.897Z,5840
2018-10-09T06:44:44.916Z,5933
2018-10-09T06:45:14.950Z,6027
2018-10-09T06:45:44.973Z,6123
2018-10-09T06:46:15.003Z,6213
2018-10-09T06:46:45.129Z,6307
2018-10-09T06:47:15.057Z,6400
2018-10-09T06:47:45.153Z,6493
2018-10-09T06:48:15.168Z,6590
2018-10-09T06:48:45.165Z,6683
2018-10-09T06:49:15.190Z,6767
2018-10-09T06:49:45.214Z,6850
2018-10-09T06:50:15.292Z,6943
2018-10-09T06:50:45.318Z,7040
2018-10-09T06:51:15.354Z,7127
2018-10-09T06:51:45.438Z,7227
2018-10-09T06:52:15.451Z,7320
2018-10-09T06:52:45.434Z,7423
2018-10-09T06:53:15.469Z,7537
2018-10-09T06:53:45.663Z,7677
2018-10-09T06:54:15.593Z,7813
2018-10-09T06:54:45.790Z,7953
2018-10-09T06:55:15.585Z,8097
2018-10-09T06:55:45.628Z,8237
2018-10-09T06:56:15.694Z,8370
2018-10-09T06:56:45.708Z,8510
2018-10-09T06:57:15.727Z,8637
2018-10-09T06:57:45.753Z,8760
2018-10-09T06:58:15.778Z,8860
2018-10-09T06:58:45.823Z,8947
2018-10-09T06:59:15.838Z,9023
2018-10-09T06:59:45.868Z,9100
2018-10-09T07:00:15.990Z,9167
2018-10-09T07:00:45.947Z,9237
2018-10-09T07:01:15.972Z,9313
2018-10-09T07:01:45.999Z,9373
2018-10-09T07:02:16.041Z,9430
2018-10-09T07:02:46.290Z,9483
2018-10-09T07:03:16.124Z,9520
2018-10-09T07:03:46.122Z,9537
2018-10-09T07:04:16.194Z,9547
2018-10-09T07:05:16.213Z,9517
2018-10-09T07:05:46.247Z,9500
2018-10-09T07:06:16.294Z,9447
2018-10-09T07:06:46.301Z,9387
2018-10-09T07:07:16.363Z,9330
2018-10-09T07:07:46.441Z,9283
2018-10-09T07:08:16.397Z,9230
2018-10-09T07:08:46.455Z,9190
2018-10-09T07:09:16.504Z,9130
2018-10-09T07:09:46.482Z,9093
2018-10-09T07:10:16.489Z,9073
2018-10-09T07:10:46.508Z,9070
2018-10-09T07:11:16.739Z,9047
2018-10-09T07:11:46.579Z,9080
2018-10-09T07:12:16.634Z,9110
2018-10-09T07:12:46.710Z,9137
2018-10-09T07:13:16.675Z,9187
2018-10-09T07:13:46.732Z,9260
2018-10-09T07:14:16.726Z,9337
2018-10-09T07:14:46.764Z,9430
2018-10-09T07:15:16.787Z,9520
2018-10-09T07:15:46.817Z,9600
2018-10-09T07:16:16.849Z,9687
2018-10-09T07:16:46.936Z,9783
2018-10-09T07:17:16.905Z,9880
2018-10-09T07:17:46.937Z,9990
2018-10-09T07:18:16.989Z,10120
2018-10-09T07:18:47.014Z,10267
2018-10-09T07:19:17.032Z,10437
2018-10-09T07:19:47.129Z,10627
2018-10-09T07:20:17.102Z,10830
2018-10-09T07:20:47.122Z,11070
2018-10-09T07:21:17.219Z,11307
2018-10-09T07:21:47.306Z,11563
2018-10-09T07:22:17.282Z,11697
2018-10-09T07:22:47.305Z,11703
2018-10-09T07:23:17.303Z,11657
2018-10-09T07:23:47.369Z,11633
2018-10-09T07:24:17.352Z,11687
2018-10-09T07:24:47.396Z,11777
2018-10-09T07:25:17.427Z,11867
2018-10-09T07:25:47.446Z,11967
2018-10-09T07:26:17.546Z,12087
2018-10-09T07:26:47.582Z,12230
2018-10-09T07:27:17.543Z,12373
2018-10-09T07:27:47.670Z,12517
2018-10-09T07:28:17.613Z,12640
2018-10-09T07:28:47.624Z,12757
2018-10-09T07:29:17.667Z,12887
2018-10-09T07:29:47.768Z,12897
2018-10-09T07:30:17.727Z,12960
2018-10-09T07:30:47.737Z,13023
2018-10-09T07:31:17.786Z,13210
2018-10-09T07:31:47.859Z,13367
2018-10-09T07:32:17.837Z,13563
2018-10-09T07:32:47.941Z,13763
2018-10-09T07:33:17.894Z,14017
2018-10-09T07:33:47.925Z,14317
2018-10-09T07:34:17.985Z,14687
2018-10-09T07:34:47.989Z,14933
2018-10-09T07:35:18.024Z,15367
2018-10-09T07:35:48.118Z,15630
2018-10-09T07:36:18.075Z,16053
2018-10-09T07:36:48.168Z,16427
2018-10-09T07:37:18.177Z,17493
2018-10-09T07:37:48.198Z,18637
2018-10-09T07:38:18.232Z,18707
2018-10-09T07:38:48.272Z,18387
2018-10-09T07:39:18.278Z,18147
2018-10-09T07:39:48.326Z,18340
2018-10-09T07:40:18.380Z,18613
2018-10-09T07:40:48.406Z,18020
2018-10-09T07:41:18.417Z,17347
2018-10-09T07:41:48.564Z,15260
2018-10-09T07:42:18.459Z,15570
2018-10-09T07:42:48.561Z,15040
2018-10-09T07:43:18.546Z,15090
2018-10-09T07:43:48.578Z,14950
2018-10-09T07:44:18.635Z,14917
2018-10-09T07:44:48.656Z,14943
2018-10-09T07:45:18.673Z,14953
2018-10-09T07:45:48.686Z,14977
2018-10-09T07:46:18.690Z,15040
2018-10-09T07:46:48.855Z,15013
2018-10-09T07:47:18.795Z,15127
2018-10-09T07:47:48.807Z,15177
2018-10-09T07:48:18.814Z,15110
2018-10-09T07:48:48.912Z,15147
2018-10-09T07:49:18.947Z,15220
2018-10-09T07:49:48.938Z,15237
2018-10-09T07:50:18.989Z,15260
2018-10-09T07:50:49.043Z,15217
2018-10-09T07:51:19.057Z,15147
2018-10-09T07:51:49.114Z,15060
2018-10-09T07:52:19.091Z,14967
2018-10-09T07:52:49.166Z,14877
2018-10-09T07:53:19.201Z,14757
2018-10-09T07:53:49.194Z,14637
2018-10-09T07:54:19.228Z,14600
2018-10-09T07:54:49.265Z,14550
2018-10-09T07:55:19.286Z,14470
2018-10-09T07:55:49.314Z,14343
2018-10-09T07:56:19.385Z,14277
2018-10-09T07:56:49.440Z,14107
2018-10-09T07:57:19.384Z,13930
2018-10-09T07:57:49.436Z,13757
2018-10-09T07:58:19.449Z,13593
2018-10-09T07:58:49.591Z,13473
2018-10-09T07:59:19.498Z,13437
2018-10-09T07:59:49.566Z,13657
2018-10-09T08:00:19.557Z,13783
2018-10-09T08:00:49.583Z,13977
2018-10-09T08:01:19.682Z,14590
2018-10-09T08:01:49.717Z,14697
2018-10-09T08:02:19.671Z,15407
2018-10-09T08:02:49.713Z,15367
2018-10-09T08:03:19.736Z,13277
2018-10-09T08:03:49.772Z,13353
2018-10-09T08:04:19.805Z,13900
2018-10-09T08:04:49.901Z,13060
2018-10-09T08:05:19.895Z,12963
2018-10-09T08:05:49.890Z,12853
2018-10-09T08:06:19.927Z,12513
2018-10-09T08:06:50.014Z,11950
2018-10-09T08:07:19.999Z,11273
2018-10-09T08:07:50.017Z,11013
2018-10-09T08:08:20.090Z,11007
2018-10-09T08:08:50.074Z,11220
2018-10-09T08:09:20.157Z,11310
2018-10-09T08:09:50.171Z,10703
2018-10-09T08:10:20.219Z,10287
2018-10-09T08:10:50.238Z,10077
2018-10-09T08:11:20.306Z,9893
2018-10-09T08:11:50.331Z,9830
2018-10-09T08:12:20.347Z,9847
2018-10-09T08:12:50.367Z,9907
2018-10-09T08:13:20.443Z,9973
2018-10-09T08:13:50.665Z,10077
2018-10-09T08:14:20.479Z,10147
2018-10-09T08:14:50.451Z,10153
2018-10-09T08:15:20.500Z,10163
2018-10-09T08:15:50.535Z,10107
2018-10-09T08:16:20.632Z,10100
2018-10-09T08:16:51.097Z,10263
2018-10-09T08:17:20.617Z,10493
2018-10-09T08:17:50.671Z,10770
2018-10-09T08:18:20.661Z,11207
2018-10-09T08:18:50.719Z,11680
2018-10-09T08:19:20.748Z,12033
2018-10-09T08:19:50.752Z,12310
2018-10-09T08:20:20.789Z,13457
2018-10-09T08:20:50.824Z,13853
2018-10-09T08:21:20.855Z,13427
2018-10-09T08:21:50.937Z,14013
2018-10-09T08:22:20.932Z,14813
2018-10-09T08:22:51.024Z,15137
2018-10-09T08:23:20.967Z,15310
2018-10-09T08:23:50.995Z,14933
2018-10-09T08:24:21.072Z,13840
2018-10-09T08:24:51.070Z,13200
2018-10-09T08:25:21.120Z,13280
2018-10-09T08:25:51.129Z,13377
2018-10-09T08:26:21.177Z,13547
2018-10-09T08:26:51.246Z,13697
2018-10-09T08:27:21.211Z,13900
2018-10-09T08:27:51.265Z,13630
2018-10-09T08:28:21.363Z,13603
2018-10-09T08:28:51.346Z,13637
2018-10-09T08:29:21.367Z,13580
2018-10-09T08:29:51.373Z,13603
2018-10-09T08:30:21.431Z,13583
2018-10-09T08:30:51.459Z,13550
2018-10-09T08:31:21.536Z,13527
2018-10-09T08:31:51.593Z,13483
2018-10-09T08:32:21.563Z,13397
2018-10-09T08:32:51.628Z,13433
2018-10-09T08:33:21.631Z,13373
2018-10-09T08:33:51.640Z,13237
2018-10-09T08:34:21.728Z,13147
2018-10-09T08:34:51.714Z,12947
2018-10-09T08:35:21.767Z,12873
2018-10-09T08:35:51.764Z,12673
2018-10-09T08:36:21.823Z,12770
2018-10-09T08:36:51.901Z,13017
2018-10-09T08:37:21.961Z,13840
2018-10-09T08:37:51.892Z,13600
2018-10-09T08:38:21.895Z,15020
2018-10-09T08:38:51.964Z,13547
2018-10-09T08:39:22.007Z,14053
2018-10-09T08:39:52.050Z,13513
2018-10-09T08:40:22.095Z,13577
2018-10-09T08:40:52.046Z,13527
2018-10-09T08:41:22.203Z,13317
2018-10-09T08:41:52.199Z,13067
2018-10-09T08:42:22.141Z,13113
2018-10-09T08:42:52.714Z,13550
2018-10-09T08:43:22.262Z,13867
2018-10-09T08:43:52.282Z,14113
2018-10-09T08:44:22.323Z,14480
2018-10-09T08:44:52.340Z,14857
2018-10-09T08:45:22.393Z,15207
2018-10-09T08:45:52.429Z,15563
2018-10-09T08:46:22.512Z,15963
2018-10-09T08:46:52.504Z,16407
2018-10-09T08:47:22.509Z,16780
2018-10-09T08:47:52.477Z,18037
2018-10-09T08:48:22.549Z,18233
2018-10-09T08:48:52.579Z,18207
2018-10-09T08:49:22.574Z,20973
2018-10-09T08:49:52.636Z,19957
2018-10-09T08:50:22.646Z,19277
2018-10-09T08:50:52.667Z,19523
2018-10-09T08:51:22.724Z,19813
2018-10-09T08:51:52.789Z,19793
2018-10-09T08:52:22.757Z,19437
2018-10-09T08:52:52.785Z,19560
2018-10-09T08:53:22.832Z,20597
2018-10-09T08:53:52.853Z,24407
2018-10-09T08:54:22.910Z,23010
2018-10-09T08:54:52.903Z,28440
2018-10-09T08:55:22.952Z,32100
2018-10-09T08:55:52.972Z,33247
2018-10-09T08:56:23.000Z,34650
2018-10-09T08:56:53.107Z,30027
2018-10-09T08:57:23.116Z,33243
2018-10-09T08:57:53.108Z,30797
2018-10-09T08:58:23.173Z,27547
2018-10-09T08:58:53.159Z,30420
2018-10-09T08:59:23.187Z,28623
2018-10-09T08:59:53.210Z,30643
2018-10-09T09:00:23.321Z,28530
2018-10-09T09:00:53.324Z,27510
2018-10-09T09:01:23.329Z,28200
2018-10-09T09:01:53.417Z,27367
2018-10-09T09:02:23.447Z,27340
2018-10-09T09:02:53.435Z,29023
2018-10-09T09:03:23.518Z,29990
2018-10-09T09:03:53.514Z,29477
2018-10-09T09:04:23.546Z,26077
2018-10-09T09:04:53.530Z,23940
2018-10-09T09:05:23.579Z,23227
2018-10-09T09:05:53.638Z,22077
2018-10-09T09:06:23.614Z,23087
2018-10-09T09:06:53.722Z,23647
2018-10-09T09:07:23.676Z,22937
2018-10-09T09:07:53.727Z,24973
2018-10-09T09:08:23.745Z,27707
2018-10-09T09:08:53.773Z,29823
2018-10-09T09:09:23.807Z,29517
2018-10-09T09:09:53.873Z,29790
2018-10-09T09:10:23.880Z,32193
2018-10-09T09:10:53.895Z,32603
2018-10-09T09:11:23.922Z,32527
2018-10-09T09:11:54.066Z,33077
2018-10-09T09:12:23.990Z,32807
2018-10-09T09:12:54.053Z,31200
2018-10-09T09:13:24.067Z,28710
2018-10-09T09:13:54.108Z,28450
2018-10-09T09:14:24.117Z,25570
2018-10-09T09:14:54.182Z,24463
2018-10-09T09:15:24.314Z,23290
2018-10-09T09:15:54.214Z,22643
2018-10-09T09:16:24.247Z,21667
2018-10-09T09:16:54.390Z,20900
2018-10-09T09:17:24.357Z,20693
2018-10-09T09:17:54.376Z,18890
2018-10-09T09:18:24.401Z,17233
2018-10-09T09:18:54.429Z,17057
2018-10-09T09:19:24.492Z,16827
2018-10-09T09:19:54.506Z,17450
2018-10-09T09:20:24.552Z,16760
2018-10-09T09:20:54.662Z,17017
2018-10-09T09:21:24.582Z,16750
2018-10-09T09:21:54.659Z,17140
2018-10-09T09:22:24.602Z,16153
2018-10-09T09:22:54.669Z,16530
2018-10-09T09:23:24.733Z,16027
2018-10-09T09:23:54.736Z,13023
2018-10-09T09:24:24.770Z,11797
2018-10-09T09:24:54.806Z,11303
2018-10-09T09:25:24.837Z,11777
2018-10-09T09:25:54.861Z,12840
2018-10-09T09:26:24.951Z,14067
2018-10-09T09:26:55.059Z,13860
2018-10-09T09:27:25.051Z,13787
2018-10-09T09:27:54.991Z,14267
2018-10-09T09:28:25.032Z,14990
2018-10-09T09:28:55.043Z,17230
2018-10-09T09:29:25.039Z,17880
2018-10-09T09:29:55.116Z,18923
2018-10-09T09:30:25.170Z,21617
2018-10-09T09:30:55.164Z,25523
2018-10-09T09:31:25.198Z,27827
2018-10-09T09:31:55.224Z,29953
2018-10-09T09:32:25.305Z,30687
2018-10-09T09:32:55.263Z,33267
2018-10-09T09:33:25.339Z,40107
2018-10-09T09:33:55.350Z,42370
2018-10-09T09:34:25.385Z,43530
2018-10-09T09:34:55.425Z,44280
2018-10-09T09:35:25.461Z,44593
2018-10-09T09:35:55.451Z,43730
2018-10-09T09:36:25.525Z,43343
2018-10-09T09:36:55.538Z,45503
2018-10-09T09:37:25.538Z,47350
2018-10-09T09:37:55.583Z,47700
2018-10-09T09:38:25.590Z,47580
2018-10-09T09:38:55.728Z,47293
2018-10-09T09:39:25.658Z,47477
2018-10-09T09:39:55.707Z,47267
2018-10-09T09:40:25.718Z,47617
2018-10-09T09:40:55.747Z,47170
2018-10-09T09:41:25.806Z,47203
2018-10-09T09:41:55.803Z,47150
2018-10-09T09:42:25.884Z,47520
2018-10-09T09:42:55.866Z,47433
2018-10-09T09:43:25.899Z,47630
2018-10-09T09:43:55.933Z,47537
2018-10-09T09:44:25.967Z,47867
2018-10-09T09:44:55.989Z,48107
2018-10-09T09:45:26.032Z,48083
2018-10-09T09:45:56.292Z,48353
2018-10-09T09:46:26.100Z,48560
2018-10-09T09:46:56.120Z,48837
2018-10-09T09:47:26.149Z,48513
2018-10-09T09:47:56.216Z,48700
2018-10-09T09:48:26.278Z,48553
2018-10-09T09:48:56.246Z,48533
2018-10-09T09:49:26.269Z,48430
2018-10-09T09:49:56.318Z,48483
2018-10-09T09:50:26.398Z,48480
2018-10-09T09:50:56.405Z,48640
2018-10-09T09:51:26.403Z,48610
2018-10-09T09:51:56.497Z,48683
2018-10-09T09:52:26.483Z,48137
2018-10-09T09:52:56.519Z,47673
2018-10-09T09:53:26.550Z,47853
2018-10-09T09:53:56.606Z,48377
2018-10-09T09:54:26.578Z,48427
2018-10-09T09:54:56.613Z,49187
2018-10-09T09:55:26.643Z,49617
2018-10-09T09:55:56.698Z,50050
2018-10-09T09:56:26.723Z,50363
2018-10-09T09:56:56.817Z,50313
2018-10-09T09:57:26.764Z,50137
2018-10-09T09:57:56.962Z,50520
2018-10-09T09:58:26.958Z,50460
2018-10-09T09:58:57.165Z,50127
2018-10-09T09:59:26.886Z,49457
2018-10-09T09:59:56.930Z,49970
2018-10-09T10:00:26.951Z,50490
2018-10-09T10:00:56.989Z,50730
2018-10-09T10:01:27.020Z,51623
2018-10-09T10:01:57.063Z,52293
2018-10-09T10:02:27.072Z,53267
2018-10-09T10:02:57.150Z,51413
2018-10-09T10:03:27.145Z,52103
2018-10-09T10:03:57.170Z,53080
2018-10-09T10:04:27.256Z,52357
2018-10-09T10:04:57.280Z,51693
2018-10-09T10:05:27.310Z,51737
2018-10-09T10:05:57.287Z,51230
2018-10-09T10:06:27.386Z,51307
2018-10-09T10:06:57.417Z,50720
2018-10-09T10:07:27.393Z,50623
2018-10-09T10:07:57.445Z,48330
2018-10-09T10:08:27.526Z,47093
2018-10-09T10:08:57.537Z,47480
2018-10-09T10:09:27.680Z,47170
2018-10-09T10:09:57.563Z,46980
2018-10-09T10:10:27.563Z,47277
2018-10-09T10:10:57.630Z,49520
2018-10-09T10:11:27.677Z,50457
2018-10-09T10:11:57.716Z,50687
2018-10-09T10:12:27.757Z,50317
2018-10-09T10:12:57.776Z,49563
2018-10-09T10:13:27.796Z,49537
2018-10-09T10:13:57.850Z,49597
2018-10-09T10:14:27.869Z,49140
2018-10-09T10:14:57.870Z,48200
2018-10-09T10:15:27.900Z,46013
2018-10-09T10:15:57.931Z,43107
2018-10-09T10:16:27.987Z,41423
2018-10-09T10:16:58.021Z,43560
2018-10-09T10:17:28.206Z,41490
2018-10-09T10:17:58.120Z,39687
2018-10-09T10:18:28.111Z,37797
2018-10-09T10:18:58.133Z,45630
2018-10-09T10:19:28.173Z,47960
2018-10-09T10:19:58.199Z,47590
2018-10-09T10:20:28.215Z,44180
2018-10-09T10:20:58.249Z,32887
2018-10-09T10:21:28.346Z,28933
2018-10-09T10:21:58.319Z,32123
2018-10-09T10:22:28.372Z,33987
2018-10-09T10:22:58.377Z,32320
2018-10-09T10:23:28.424Z,34817
2018-10-09T10:23:58.449Z,36687
2018-10-09T10:24:28.521Z,36057
2018-10-09T10:24:58.516Z,35037
2018-10-09T10:25:28.564Z,33030
2018-10-09T10:25:58.573Z,30287
2018-10-09T10:26:28.551Z,29553
2018-10-09T10:26:58.604Z,31800
2018-10-09T10:27:28.675Z,32510
2018-10-09T10:27:58.644Z,34600
2018-10-09T10:28:28.714Z,37670
2018-10-09T10:28:58.800Z,42620
2018-10-09T10:29:28.807Z,44307
2018-10-09T10:29:58.823Z,42517
2018-10-09T10:30:28.815Z,44143
2018-10-09T10:30:58.835Z,51147
2018-10-09T10:31:28.862Z,51330
2018-10-09T10:31:58.909Z,50347
2018-10-09T10:32:28.920Z,41353
2018-10-09T10:32:58.958Z,42170
2018-10-09T10:33:29.208Z,43420
2018-10-09T10:33:59.039Z,48010
2018-10-09T10:34:29.066Z,52567
2018-10-09T10:34:59.091Z,52157
2018-10-09T10:35:29.155Z,53937
2018-10-09T10:35:59.173Z,52953
2018-10-09T10:36:29.251Z,49677
2018-10-09T10:36:59.241Z,49023
2018-10-09T10:37:29.236Z,48567
2018-10-09T10:37:59.336Z,49313
2018-10-09T10:38:29.567Z,50463
2018-10-09T10:38:59.358Z,49550
2018-10-09T10:39:29.372Z,49143
2018-10-09T10:39:59.452Z,46577
2018-10-09T10:40:29.437Z,45447
2018-10-09T10:40:59.481Z,43163
2018-10-09T10:41:29.572Z,45640
2018-10-09T10:41:59.531Z,46587
2018-10-09T10:42:29.637Z,47803
2018-10-09T10:42:59.588Z,50823
2018-10-09T10:43:29.728Z,51433
2018-10-09T10:43:59.675Z,51523
2018-10-09T10:44:29.664Z,51217
2018-10-09T10:44:59.711Z,50993
2018-10-09T10:45:29.729Z,50810
2018-10-09T10:45:59.787Z,50543
2018-10-09T10:46:29.790Z,50997
2018-10-09T10:46:59.867Z,51220
2018-10-09T10:47:29.847Z,51087
2018-10-09T10:47:59.936Z,50660
2018-10-09T10:48:29.970Z,51507
2018-10-09T10:49:00.001Z,51613
2018-10-09T10:49:30.059Z,51387
2018-10-09T10:50:00.021Z,50137
2018-10-09T10:50:30.039Z,49067
2018-10-09T10:51:00.076Z,48793
2018-10-09T10:51:30.099Z,49273
2018-10-09T10:52:00.156Z,50063
2018-10-09T10:52:30.159Z,50243
2018-10-09T10:53:00.230Z,50567
2018-10-09T10:53:30.506Z,48020
2018-10-09T10:54:01.697Z,44893
2018-10-09T10:54:30.280Z,46317
2018-10-09T10:55:01.091Z,49157
2018-10-09T10:55:30.394Z,49727
2018-10-09T10:56:01.388Z,49507
2018-10-09T10:56:30.407Z,50190
2018-10-09T10:57:01.461Z,50710
2018-10-09T10:57:30.497Z,51203
2018-10-09T10:58:01.493Z,50747
2018-10-09T10:58:30.646Z,50773
2018-10-09T10:59:01.448Z,50137
2018-10-09T10:59:30.641Z,49967
2018-10-09T11:00:00.980Z,49363
2018-10-09T11:00:30.677Z,48873
2018-10-09T11:01:01.565Z,47987
2018-10-09T11:01:30.867Z,48747
2018-10-09T11:02:01.520Z,49687
2018-10-09T11:02:30.864Z,49970
2018-10-09T11:03:01.432Z,49820
2018-10-09T11:03:30.939Z,49603
2018-10-09T11:04:01.498Z,49330
2018-10-09T11:04:30.948Z,49260
2018-10-09T11:05:00.937Z,48810
2018-10-09T11:05:31.013Z,48000
2018-10-09T11:06:01.389Z,48047
2018-10-09T11:06:31.060Z,48517
2018-10-09T11:07:01.056Z,48567
2018-10-09T11:07:31.142Z,44700
2018-10-09T11:08:01.525Z,29810
2018-10-09T11:08:31.428Z,25107
2018-10-09T11:09:01.581Z,26783
2018-10-09T11:09:31.268Z,29857
2018-10-09T11:10:01.681Z,30093
2018-10-09T11:10:31.315Z,35030
2018-10-09T11:11:01.321Z,42210
2018-10-09T11:11:31.402Z,43803
2018-10-09T11:12:01.390Z,42723
2018-10-09T11:12:31.465Z,45713
2018-10-09T11:13:01.455Z,45867
2018-10-09T11:13:31.579Z,44087
2018-10-09T11:14:01.650Z,41130
2018-10-09T11:14:31.544Z,41307
2018-10-09T11:15:01.565Z,40340
2018-10-09T11:15:31.606Z,40390
2018-10-09T11:16:01.616Z,39127
2018-10-09T11:16:31.655Z,38807
2018-10-09T11:17:01.687Z,41307
2018-10-09T11:17:31.705Z,40963
2018-10-09T11:18:01.781Z,43723
2018-10-09T11:18:31.853Z,45333
2018-10-09T11:19:01.805Z,46643
2018-10-09T11:19:31.830Z,46300
2018-10-09T11:20:01.871Z,46287
2018-10-09T11:20:31.913Z,46400
2018-10-09T11:21:02.010Z,46447
2018-10-09T11:21:32.037Z,47603
2018-10-09T11:22:02.031Z,47643
2018-10-09T11:22:32.012Z,48997
2018-10-09T11:23:02.125Z,48613
2018-10-09T11:23:32.128Z,48913
2018-10-09T11:24:02.198Z,49793
2018-10-09T11:24:32.187Z,50773
2018-10-09T11:25:02.177Z,51527
2018-10-09T11:25:32.213Z,51783
2018-10-09T11:26:02.234Z,52067
2018-10-09T11:26:32.290Z,52340
2018-10-09T11:27:02.299Z,52703
2018-10-09T11:27:32.398Z,52933
2018-10-09T11:28:02.388Z,52967
2018-10-09T11:28:32.457Z,52907
2018-10-09T11:29:02.460Z,53073
2018-10-09T11:29:32.501Z,53317
2018-10-09T11:30:02.523Z,51547
2018-10-09T11:30:32.578Z,50947
2018-10-09T11:31:02.582Z,49480
2018-10-09T11:31:32.631Z,48900
2018-10-09T11:32:02.609Z,49033
2018-10-09T11:32:32.714Z,52087
2018-10-09T11:33:02.693Z,54233
2018-10-09T11:33:32.946Z,53543
2018-10-09T11:34:02.719Z,51470
2018-10-09T11:34:32.775Z,50083
2018-10-09T11:35:02.799Z,46940
2018-10-09T11:35:32.826Z,50423
2018-10-09T11:36:02.863Z,53003
2018-10-09T11:36:32.927Z,54207
2018-10-09T11:37:02.906Z,48803
2018-10-09T11:37:32.996Z,44753
2018-10-09T11:38:02.967Z,41213
2018-10-09T11:38:33.053Z,40253
2018-10-09T11:39:03.067Z,42200
2018-10-09T11:39:33.073Z,38400
2018-10-09T11:40:03.092Z,39980
2018-10-09T11:40:33.162Z,46183
2018-10-09T11:41:03.161Z,50553
2018-10-09T11:41:33.219Z,51187
2018-10-09T11:42:03.213Z,51350